This is the latest recevied weather packets stored in our database for station/object WB8SKP-WX. If no packets are shown the sender has not sent any weather packets the latest 10 day(s).
| Time | Temp. | Humidity | Pressure | Rain* | Wind** | Luminosity | Snow |
|---|---|---|---|---|---|---|---|
| 1777762580 | 13.89° C | 66% | 999.2 hPa | 0 mm | - | - | - |
| 1777761350 | 13.89° C | 66% | 999 hPa | 0 mm | - | - | - |
| 1777760150 | 13.89° C | 66% | 998.9 hPa | 0 mm | - | - | - |
| 1777758950 | 14.44° C | 69% | 998.6 hPa | 0 mm | - | - | - |
| 1777757720 | 14.44° C | 68% | 998.4 hPa | 0 mm | - | - | - |
| 1777756520 | 14.44° C | 65% | 998.2 hPa | 0 mm | - | - | - |
| 1777755290 | 14.44° C | 69% | 997.8 hPa | 0 mm | - | - | - |
| 1777754090 | 13.89° C | 72% | 997.8 hPa | 0 mm | - | - | - |
| 1777752890 | 13.33° C | 74% | 997.7 hPa | 0 mm | - | - | - |
| 1777751660 | 14.44° C | 76% | 996.9 hPa | 0 mm | - | - | - |
| 1777750460 | 13.89° C | 70% | 997.4 hPa | 0 mm | - | - | - |
| 1777749260 | 15° C | 64% | 997.1 hPa | 0 mm | - | - | - |
| 1777748030 | 15.56° C | 59% | 997.5 hPa | 0 mm | - | - | - |
| 1777746830 | 17.78° C | 46% | 996.7 hPa | 0 mm | - | - | - |
| 1777745600 | 17.22° C | 47% | 997.4 hPa | 0 mm | - | - | - |
| 1777744370 | 17.22° C | 45% | 997.2 hPa | 0 mm | - | - | - |
| 1777743170 | 16.67° C | 44% | 997.6 hPa | 0 mm | - | - | - |
| 1777741970 | 16.11° C | 46% | 998 hPa | 0 mm | - | - | - |
| 1777740740 | 16.67° C | 49% | 997.8 hPa | 0 mm | - | - | - |
| 1777739540 | 15.56° C | 50% | 998.1 hPa | 0 mm | - | - | - |
| 1777738340 | 15.56° C | 48% | 998.4 hPa | 0 mm | - | - | - |
| 1777737110 | 15.56° C | 52% | 998.6 hPa | 0 mm | - | - | - |
| 1777735910 | 15° C | 53% | 998.5 hPa | 0 mm | - | - | - |
| 1777734680 | 15° C | 60% | 998.3 hPa | 0 mm | - | - | - |
| 1777733450 | 13.89° C | 61% | 998.2 hPa | 0 mm | - | - | - |
* Rain latest hour (hover to see other rain measurements)
** Current wind speed in m/s (hover to see current wind gust speed)